createdAt,value
2016-05-10T00:00:20.221Z,0
2016-05-10T00:01:20.082Z,0
2016-05-10T00:02:20.257Z,0
2016-05-10T00:03:20.244Z,0
2016-05-10T00:04:20.091Z,0
2016-05-10T00:05:20.109Z,0
2016-05-10T00:06:20.112Z,0
2016-05-10T00:07:20.286Z,0
2016-05-10T00:08:20.304Z,0
2016-05-10T00:09:20.135Z,0
2016-05-10T00:10:20.294Z,0
2016-05-10T00:11:20.001Z,0
2016-05-10T00:12:20.326Z,0
2016-05-10T00:13:20.074Z,0
2016-05-10T00:14:20.821Z,0
2016-05-10T00:15:20.505Z,0
2016-05-10T00:16:20.362Z,0
2016-05-10T00:17:20.560Z,0
2016-05-10T00:18:20.592Z,0
2016-05-10T00:19:20.609Z,0
2016-05-10T00:20:20.627Z,0
2016-05-10T00:21:20.504Z,0
2016-05-10T00:22:20.358Z,0
2016-05-10T00:23:20.679Z,0
2016-05-10T00:24:20.688Z,0
2016-05-10T00:25:20.711Z,0
2016-05-10T00:26:20.719Z,0
2016-05-10T00:27:20.568Z,0
2016-05-10T00:28:20.605Z,0
2016-05-10T00:29:21.016Z,0
2016-05-10T00:30:20.770Z,0
2016-05-10T00:31:20.790Z,0
2016-05-10T00:32:20.793Z,0
2016-05-10T00:33:20.782Z,0
2016-05-10T00:34:20.800Z,0
2016-05-10T00:35:20.804Z,0
2016-05-10T00:36:20.651Z,0
2016-05-10T00:37:20.826Z,0
2016-05-10T00:38:20.658Z,0
2016-05-10T00:39:20.832Z,0
2016-05-10T00:40:20.507Z,0
2016-05-10T00:41:20.838Z,0
2016-05-10T00:42:20.857Z,0
2016-05-10T00:43:20.860Z,0
2016-05-10T00:44:20.862Z,0
2016-05-10T00:45:20.866Z,0
2016-05-10T00:46:20.883Z,0
2016-05-10T00:47:20.730Z,0
2016-05-10T00:48:20.749Z,0
2016-05-10T00:49:20.751Z,0
2016-05-10T00:50:20.597Z,0
2016-05-10T00:51:20.943Z,0
2016-05-10T00:52:20.915Z,0
2016-05-10T00:53:20.934Z,0
2016-05-10T00:54:20.937Z,0
2016-05-10T00:55:20.940Z,0
2016-05-10T00:56:20.801Z,0
2016-05-10T00:57:20.960Z,0
2016-05-10T00:58:20.962Z,0
2016-05-10T00:59:21.450Z,0
2016-05-10T01:00:20.968Z,0
2016-05-10T01:01:20.986Z,0
2016-05-10T01:02:21.004Z,0
2016-05-10T01:03:21.007Z,0
2016-05-10T01:04:20.854Z,0
2016-05-10T01:05:20.700Z,0
2016-05-10T01:06:21.015Z,0
2016-05-10T01:07:21.050Z,0
2016-05-10T01:08:21.020Z,0
2016-05-10T01:09:20.883Z,0
2016-05-10T01:10:20.901Z,0
2016-05-10T01:11:21.060Z,0
2016-05-10T01:12:21.063Z,0
2016-05-10T01:13:21.081Z,0
2016-05-10T01:14:20.975Z,0
2016-05-10T01:15:21.086Z,0
2016-05-10T01:16:21.089Z,0
2016-05-10T01:17:20.952Z,0
2016-05-10T01:18:21.110Z,0
2016-05-10T01:19:21.129Z,0
2016-05-10T01:20:21.147Z,0
2016-05-10T01:21:21.134Z,0
2016-05-10T01:22:21.152Z,0
2016-05-10T01:23:20.983Z,0
2016-05-10T01:24:21.158Z,0
2016-05-10T01:25:21.004Z,0
2016-05-10T01:26:21.163Z,0
2016-05-10T01:27:21.165Z,0
2016-05-10T01:28:20.715Z,0
2016-05-10T01:29:21.734Z,0
2016-05-10T01:30:21.189Z,0
2016-05-10T01:31:21.192Z,0
2016-05-10T01:32:21.210Z,0
2016-05-10T01:33:21.073Z,0
2016-05-10T01:34:21.075Z,0
2016-05-10T01:35:21.234Z,0
2016-05-10T01:36:21.237Z,0
2016-05-10T01:37:21.083Z,0
2016-05-10T01:38:20.961Z,0
2016-05-10T01:39:21.261Z,0
2016-05-10T01:40:21.107Z,0
2016-05-10T01:41:21.266Z,0
2016-05-10T01:42:21.128Z,0
2016-05-10T01:43:21.271Z,0
2016-05-10T01:44:21.305Z,0
2016-05-10T01:45:21.449Z,0
2016-05-10T01:46:21.311Z,0
2016-05-10T01:47:21.017Z,0
2016-05-10T01:48:21.191Z,0
2016-05-10T01:49:21.334Z,0
2016-05-10T01:50:21.352Z,0
2016-05-10T01:51:21.355Z,0
2016-05-10T01:52:21.343Z,0
2016-05-10T01:53:21.361Z,0
2016-05-10T01:54:21.379Z,0
2016-05-10T01:55:21.241Z,0
2016-05-10T01:56:21.368Z,0
2016-05-10T01:57:21.403Z,0
2016-05-10T01:58:21.405Z,0
2016-05-10T01:59:23.377Z,0
2016-05-10T02:00:21.426Z,0
2016-05-10T02:01:21.398Z,0
2016-05-10T02:02:21.415Z,0
2016-05-10T02:03:21.434Z,0
2016-05-10T02:04:21.468Z,0
2016-05-10T02:05:21.299Z,0
2016-05-10T02:06:21.302Z,0
2016-05-10T02:07:21.476Z,0
2016-05-10T02:08:21.306Z,0
2016-05-10T02:09:21.481Z,0
2016-05-10T02:10:21.328Z,0
2016-05-10T02:11:21.487Z,0
2016-05-10T02:12:21.506Z,0
2016-05-10T02:13:21.492Z,0
2016-05-10T02:14:21.308Z,0
2016-05-10T02:15:21.357Z,0
2016-05-10T02:16:21.360Z,0
2016-05-10T02:17:21.535Z,0
2016-05-10T02:18:21.553Z,0
2016-05-10T02:19:21.555Z,0
2016-05-10T02:20:21.558Z,0
2016-05-10T02:21:21.561Z,0
2016-05-10T02:22:21.579Z,0
2016-05-10T02:23:21.597Z,0
2016-05-10T02:24:21.585Z,0
2016-05-10T02:25:21.447Z,0
2016-05-10T02:26:21.449Z,0
2016-05-10T02:27:21.437Z,0
2016-05-10T02:28:21.455Z,0
2016-05-10T02:29:21.582Z,0
2016-05-10T02:30:21.616Z,0
2016-05-10T02:31:21.462Z,0
2016-05-10T02:32:21.481Z,0
2016-05-10T02:33:21.640Z,0
2016-05-10T02:34:21.643Z,0
2016-05-10T02:35:21.505Z,0
2016-05-10T02:36:21.679Z,0
2016-05-10T02:37:21.666Z,0
2016-05-10T02:38:21.512Z,0
2016-05-10T02:39:21.687Z,0
2016-05-10T02:40:21.534Z,0
2016-05-10T02:41:21.709Z,0
2016-05-10T02:42:21.539Z,0
2016-05-10T02:43:21.433Z,0
2016-05-10T02:44:21.276Z,0
2016-05-10T02:45:21.423Z,0
2016-05-10T02:46:21.738Z,0
2016-05-10T02:47:21.740Z,0
2016-05-10T02:48:21.759Z,0
2016-05-10T02:49:21.621Z,0
2016-05-10T02:50:21.763Z,0
2016-05-10T02:51:21.627Z,0
2016-05-10T02:52:21.769Z,0
2016-05-10T02:53:21.632Z,0
2016-05-10T02:54:21.635Z,0
2016-05-10T02:55:21.652Z,0
2016-05-10T02:56:21.827Z,0
2016-05-10T02:57:21.813Z,0
2016-05-10T02:58:21.660Z,0
2016-05-10T02:59:21.835Z,0
2016-05-10T03:00:21.663Z,0
2016-05-10T03:01:21.665Z,0
2016-05-10T03:02:21.859Z,0
2016-05-10T03:03:21.862Z,0
2016-05-10T03:04:21.864Z,0
2016-05-10T03:05:21.867Z,0
2016-05-10T03:06:21.901Z,0
2016-05-10T03:07:21.885Z,0
2016-05-10T03:08:21.887Z,0
2016-05-10T03:09:21.593Z,0
2016-05-10T03:10:21.909Z,0
2016-05-10T03:11:21.911Z,0
2016-05-10T03:12:21.461Z,0
2016-05-10T03:13:21.917Z,0
2016-05-10T03:14:21.811Z,0
2016-05-10T03:15:21.938Z,0
2016-05-10T03:16:21.784Z,0
2016-05-10T03:17:21.818Z,0
2016-05-10T03:18:21.962Z,0
2016-05-10T03:19:21.964Z,0
2016-05-10T03:20:21.810Z,0
2016-05-10T03:21:22.001Z,0
2016-05-10T03:22:21.988Z,0
2016-05-10T03:23:22.005Z,0
2016-05-10T03:24:22.008Z,0
2016-05-10T03:25:21.886Z,0
2016-05-10T03:26:21.702Z,0
2016-05-10T03:27:21.861Z,0
2016-05-10T03:28:22.035Z,0
2016-05-10T03:29:22.226Z,0
2016-05-10T03:30:22.041Z,0
2016-05-10T03:31:21.902Z,0
2016-05-10T03:32:22.046Z,0
2016-05-10T03:33:22.080Z,0
2016-05-10T03:34:22.082Z,0
2016-05-10T03:35:22.085Z,0
2016-05-10T03:36:21.932Z,0
2016-05-10T03:37:22.090Z,0
2016-05-10T03:38:22.094Z,0
2016-05-10T03:39:21.955Z,0
2016-05-10T03:40:21.989Z,0
2016-05-10T03:41:21.961Z,0
2016-05-10T03:42:21.979Z,0
2016-05-10T03:43:22.123Z,0
2016-05-10T03:44:22.547Z,0
2016-05-10T03:45:22.159Z,0
2016-05-10T03:46:21.834Z,0
2016-05-10T03:47:22.149Z,0
2016-05-10T03:48:22.167Z,0
2016-05-10T03:49:22.014Z,0
2016-05-10T03:50:22.033Z,0
2016-05-10T03:51:22.035Z,0
2016-05-10T03:52:22.052Z,0
2016-05-10T03:53:22.040Z,0
2016-05-10T03:54:22.105Z,0
2016-05-10T03:55:22.217Z,0
2016-05-10T03:56:21.939Z,0
2016-05-10T03:57:22.067Z,0
2016-05-10T03:58:22.100Z,0
2016-05-10T03:59:23.056Z,0
2016-05-10T04:00:22.262Z,0
2016-05-10T04:01:22.093Z,0
2016-05-10T04:02:22.315Z,0
2016-05-10T04:03:22.270Z,0
2016-05-10T04:04:22.163Z,0
2016-05-10T04:05:22.290Z,0
2016-05-10T04:06:22.293Z,0
2016-05-10T04:07:22.296Z,0
2016-05-10T04:08:22.315Z,0
2016-05-10T04:09:22.302Z,0
2016-05-10T04:10:22.179Z,0
2016-05-10T04:11:22.448Z,0
2016-05-10T04:12:22.342Z,0
2016-05-10T04:13:22.031Z,0
2016-05-10T04:14:22.518Z,0
2016-05-10T04:15:22.365Z,0
2016-05-10T04:16:22.227Z,0
2016-05-10T04:17:22.214Z,0
2016-05-10T04:18:22.373Z,0
2016-05-10T04:19:22.250Z,0
2016-05-10T04:20:22.394Z,0
2016-05-10T04:21:22.396Z,0
2016-05-10T04:22:22.446Z,0
2016-05-10T04:23:22.261Z,0
2016-05-10T04:24:22.264Z,0
2016-05-10T04:25:22.455Z,0
2016-05-10T04:26:22.426Z,5
2016-05-10T04:27:22.288Z,5
2016-05-10T04:28:22.430Z,5
2016-05-10T04:29:22.543Z,5
2016-05-10T04:30:22.452Z,5
2016-05-10T04:31:22.314Z,5
2016-05-10T04:32:22.333Z,5
2016-05-10T04:33:22.491Z,5
2016-05-10T04:34:22.478Z,5
2016-05-10T04:35:22.185Z,5
2016-05-10T04:36:22.202Z,5
2016-05-10T04:37:22.518Z,5
2016-05-10T04:38:22.521Z,5
2016-05-10T04:39:22.523Z,5
2016-05-10T04:40:22.542Z,10
2016-05-10T04:41:22.528Z,10
2016-05-10T04:42:22.390Z,10
2016-05-10T04:43:22.425Z,10
2016-05-10T04:44:22.974Z,10
2016-05-10T04:45:22.399Z,10
2016-05-10T04:46:22.417Z,10
2016-05-10T04:47:22.575Z,10
2016-05-10T04:48:22.422Z,15
2016-05-10T04:49:22.597Z,15
2016-05-10T04:50:22.428Z,15
2016-05-10T04:51:22.447Z,15
2016-05-10T04:52:22.605Z,20
2016-05-10T04:53:22.451Z,20
2016-05-10T04:54:22.469Z,20
2016-05-10T04:55:22.472Z,20
2016-05-10T04:56:22.647Z,25
2016-05-10T04:57:22.649Z,25
2016-05-10T04:58:22.497Z,25
2016-05-10T04:59:22.968Z,30
2016-05-10T05:00:22.502Z,30
2016-05-10T05:01:22.661Z,35
2016-05-10T05:02:22.679Z,35
2016-05-10T05:03:22.541Z,35
2016-05-10T05:04:22.559Z,35
2016-05-10T05:05:22.374Z,35
2016-05-10T05:06:22.705Z,35
2016-05-10T05:07:22.567Z,40
2016-05-10T05:08:22.710Z,45
2016-05-10T05:09:22.729Z,45
2016-05-10T05:10:22.590Z,50
2016-05-10T05:11:22.579Z,60
2016-05-10T05:12:22.596Z,55
2016-05-10T05:13:22.755Z,60
2016-05-10T05:14:23.352Z,65
2016-05-10T05:15:22.620Z,65
2016-05-10T05:16:22.778Z,55
2016-05-10T05:17:22.798Z,55
2016-05-10T05:18:22.644Z,60
2016-05-10T05:19:22.647Z,65
2016-05-10T05:20:22.649Z,70
2016-05-10T05:21:22.652Z,90
2016-05-10T05:22:22.514Z,110
2016-05-10T05:23:22.828Z,125
2016-05-10T05:24:22.831Z,130
2016-05-10T05:25:22.866Z,125
2016-05-10T05:26:22.697Z,115
2016-05-10T05:27:22.855Z,110
2016-05-10T05:28:22.858Z,100
2016-05-10T05:29:23.735Z,115
2016-05-10T05:30:22.879Z,115
2016-05-10T05:31:22.725Z,115
2016-05-10T05:32:22.915Z,115
2016-05-10T05:33:22.747Z,120
2016-05-10T05:34:22.906Z,115
2016-05-10T05:35:22.908Z,120
2016-05-10T05:36:22.785Z,135
2016-05-10T05:37:22.945Z,150
2016-05-10T05:38:22.932Z,180
2016-05-10T05:39:22.950Z,195
2016-05-10T05:40:22.968Z,200
2016-05-10T05:41:22.971Z,200
2016-05-10T05:42:22.974Z,200
2016-05-10T05:43:23.242Z,185
2016-05-10T05:44:23.339Z,190
2016-05-10T05:45:22.998Z,210
2016-05-10T05:46:23.000Z,215
2016-05-10T05:47:23.034Z,230
2016-05-10T05:48:22.709Z,230
2016-05-10T05:49:22.867Z,240
2016-05-10T05:50:23.027Z,250
2016-05-10T05:51:23.061Z,265
2016-05-10T05:52:23.047Z,300
2016-05-10T05:53:23.050Z,290
2016-05-10T05:54:23.069Z,330
2016-05-10T05:55:23.071Z,345
2016-05-10T05:56:22.792Z,360
2016-05-10T05:57:23.077Z,330
2016-05-10T05:58:23.094Z,295
2016-05-10T05:59:23.144Z,300
2016-05-10T06:00:23.116Z,330
2016-05-10T06:01:22.978Z,355
2016-05-10T06:02:22.996Z,365
2016-05-10T06:03:23.140Z,400
2016-05-10T06:04:23.158Z,415
2016-05-10T06:05:23.161Z,400
2016-05-10T06:06:23.163Z,380
2016-05-10T06:07:22.885Z,345
2016-05-10T06:08:23.029Z,345
2016-05-10T06:09:23.032Z,335
2016-05-10T06:10:23.204Z,310
2016-05-10T06:11:23.239Z,325
2016-05-10T06:12:23.054Z,395
2016-05-10T06:13:23.229Z,420
2016-05-10T06:14:23.029Z,440
2016-05-10T06:15:22.938Z,450
2016-05-10T06:16:23.096Z,405
2016-05-10T06:17:23.270Z,355
2016-05-10T06:18:23.117Z,480
2016-05-10T06:19:23.276Z,445
2016-05-10T06:20:23.295Z,405
2016-05-10T06:21:23.298Z,385
2016-05-10T06:22:23.317Z,470
2016-05-10T06:23:23.319Z,490
2016-05-10T06:24:23.322Z,525
2016-05-10T06:25:23.339Z,560
2016-05-10T06:26:23.217Z,600
2016-05-10T06:27:23.188Z,660
2016-05-10T06:28:23.364Z,675
2016-05-10T06:29:23.694Z,570
2016-05-10T06:30:23.384Z,545
2016-05-10T06:31:23.386Z,540
2016-05-10T06:32:23.406Z,650
2016-05-10T06:33:23.407Z,620
2016-05-10T06:34:23.254Z,550
2016-05-10T06:35:23.272Z,610
2016-05-10T06:36:23.432Z,615
2016-05-10T06:37:23.293Z,690
2016-05-10T06:38:23.453Z,625
2016-05-10T06:39:23.471Z,545
2016-05-10T06:40:23.473Z,495
2016-05-10T06:41:23.335Z,475
2016-05-10T06:42:23.338Z,490
2016-05-10T06:43:23.373Z,385
2016-05-10T06:44:23.532Z,375
2016-05-10T06:45:23.221Z,365
2016-05-10T06:46:23.537Z,370
2016-05-10T06:47:23.243Z,355
2016-05-10T06:48:23.557Z,350
2016-05-10T06:49:23.560Z,335
2016-05-10T06:50:23.579Z,345
2016-05-10T06:51:23.581Z,370
2016-05-10T06:52:23.584Z,345
2016-05-10T06:53:23.603Z,385
2016-05-10T06:54:23.621Z,430
2016-05-10T06:55:23.623Z,415
2016-05-10T06:56:23.641Z,475
2016-05-10T06:57:23.472Z,455
2016-05-10T06:58:23.647Z,430
2016-05-10T06:59:23.353Z,370
2016-05-10T07:00:23.668Z,390
2016-05-10T07:01:23.530Z,390
2016-05-10T07:02:23.688Z,300
2016-05-10T07:03:23.723Z,325
2016-05-10T07:04:23.694Z,235
2016-05-10T07:05:23.697Z,215
2016-05-10T07:06:23.715Z,200
2016-05-10T07:07:23.733Z,235
2016-05-10T07:08:23.580Z,240
2016-05-10T07:09:23.598Z,345
2016-05-10T07:10:23.758Z,310
2016-05-10T07:11:23.635Z,270
2016-05-10T07:12:23.778Z,240
2016-05-10T07:13:23.781Z,270
2016-05-10T07:14:23.721Z,200
2016-05-10T07:15:23.802Z,195
2016-05-10T07:16:23.837Z,185
2016-05-10T07:17:23.823Z,170
2016-05-10T07:18:23.826Z,175
2016-05-10T07:19:23.672Z,150
2016-05-10T07:20:23.691Z,150
2016-05-10T07:21:23.865Z,145
2016-05-10T07:22:23.867Z,135
2016-05-10T07:23:23.730Z,130
2016-05-10T07:24:23.889Z,125
2016-05-10T07:25:23.907Z,130
2016-05-10T07:26:23.582Z,130
2016-05-10T07:27:23.741Z,125
2016-05-10T07:28:23.915Z,125
2016-05-10T07:29:24.261Z,120
2016-05-10T07:30:23.780Z,120
2016-05-10T07:31:23.938Z,120
2016-05-10T07:32:23.800Z,120
2016-05-10T07:33:23.819Z,115
2016-05-10T07:34:23.806Z,110
2016-05-10T07:35:23.669Z,110
2016-05-10T07:36:23.983Z,105
2016-05-10T07:37:24.002Z,105
2016-05-10T07:38:24.004Z,105
2016-05-10T07:39:23.851Z,105
2016-05-10T07:40:23.869Z,105
2016-05-10T07:41:24.028Z,110
2016-05-10T07:42:24.031Z,110
2016-05-10T07:43:23.893Z,115
2016-05-10T07:44:24.630Z,115
2016-05-10T07:45:24.055Z,120
2016-05-10T07:46:24.182Z,120
2016-05-10T07:47:24.123Z,120
2016-05-10T07:48:23.937Z,120
2016-05-10T07:49:24.096Z,120
2016-05-10T07:50:24.115Z,125
2016-05-10T07:51:23.946Z,125
2016-05-10T07:52:23.667Z,130
2016-05-10T07:53:23.982Z,130
2016-05-10T07:54:24.142Z,125
2016-05-10T07:55:24.145Z,120
2016-05-10T07:56:23.865Z,120
2016-05-10T07:57:24.009Z,120
2016-05-10T07:58:24.199Z,120
2016-05-10T07:59:24.248Z,120
2016-05-10T08:00:24.048Z,120
2016-05-10T08:01:24.191Z,120
2016-05-10T08:02:24.038Z,120
2016-05-10T08:03:24.228Z,125
2016-05-10T08:04:24.246Z,125
2016-05-10T08:05:24.233Z,130
2016-05-10T08:06:24.236Z,130
2016-05-10T08:07:24.099Z,130
2016-05-10T08:08:24.101Z,130
2016-05-10T08:09:24.260Z,135
2016-05-10T08:10:23.950Z,135
2016-05-10T08:11:24.280Z,135
2016-05-10T08:12:23.971Z,140
2016-05-10T08:13:24.286Z,140
2016-05-10T08:14:24.007Z,140
2016-05-10T08:15:24.166Z,140
2016-05-10T08:16:24.154Z,135
2016-05-10T08:17:24.328Z,135
2016-05-10T08:18:24.331Z,135
2016-05-10T08:19:24.037Z,135
2016-05-10T08:20:24.352Z,135
2016-05-10T08:21:24.354Z,135
2016-05-10T08:22:24.232Z,140
2016-05-10T08:23:24.407Z,140
2016-05-10T08:24:24.238Z,140
2016-05-10T08:25:24.397Z,140
2016-05-10T08:26:24.242Z,140
2016-05-10T08:27:24.245Z,140
2016-05-10T08:28:24.436Z,135
2016-05-10T08:29:25.189Z,135
2016-05-10T08:30:24.878Z,135
2016-05-10T08:31:24.288Z,135
2016-05-10T08:32:24.447Z,135
2016-05-10T08:33:24.308Z,135
2016-05-10T08:34:24.484Z,135
2016-05-10T08:35:24.486Z,135
2016-05-10T08:36:24.347Z,135
2016-05-10T08:37:24.522Z,135
2016-05-10T08:38:24.510Z,135
2016-05-10T08:39:24.512Z,135
2016-05-10T08:40:24.530Z,135
2016-05-10T08:41:24.549Z,135
2016-05-10T08:42:24.535Z,135
2016-05-10T08:43:24.538Z,135
2016-05-10T08:44:25.182Z,135
2016-05-10T08:45:24.435Z,135
2016-05-10T08:46:24.593Z,135
2016-05-10T08:47:24.596Z,135
2016-05-10T08:48:24.584Z,135
2016-05-10T08:49:24.602Z,135
2016-05-10T08:50:24.604Z,135
2016-05-10T08:51:24.623Z,135
2016-05-10T08:52:24.626Z,135
2016-05-10T08:53:24.488Z,135
2016-05-10T08:54:24.209Z,140
2016-05-10T08:55:24.493Z,140
2016-05-10T08:56:24.340Z,135
2016-05-10T08:57:24.670Z,140
2016-05-10T08:58:24.220Z,140
2016-05-10T08:59:24.956Z,135
2016-05-10T09:00:24.709Z,135
2016-05-10T09:01:24.697Z,135
2016-05-10T09:02:24.714Z,135
2016-05-10T09:03:24.108Z,135
2016-05-10T09:04:24.422Z,135
2016-05-10T09:05:24.582Z,130
2016-05-10T09:06:24.742Z,130
2016-05-10T09:07:24.760Z,130
2016-05-10T09:08:24.763Z,130
2016-05-10T09:09:24.781Z,130
2016-05-10T09:10:24.783Z,135
2016-05-10T09:11:24.786Z,135
2016-05-10T09:12:24.805Z,135
2016-05-10T09:13:36.260Z,140
2016-05-10T09:14:25.700Z,140
2016-05-10T09:15:26.891Z,140
2016-05-10T09:16:25.065Z,140
2016-05-10T09:17:24.708Z,140
2016-05-10T09:18:24.680Z,145
2016-05-10T09:19:24.891Z,145
2016-05-10T09:20:24.952Z,145
2016-05-10T09:21:24.839Z,145
2016-05-10T09:22:25.040Z,150
2016-05-10T09:23:24.959Z,150
2016-05-10T09:24:27.494Z,150
2016-05-10T09:25:24.997Z,150
2016-05-10T09:26:24.999Z,150
2016-05-10T09:27:25.189Z,150
2016-05-10T09:28:25.050Z,150
2016-05-10T09:29:25.231Z,150
2016-05-10T09:30:25.411Z,150
2016-05-10T09:31:25.247Z,145
2016-05-10T09:32:25.115Z,140
2016-05-10T09:33:25.294Z,145
2016-05-10T09:34:24.972Z,150
2016-05-10T09:35:25.148Z,145
2016-05-10T09:36:25.323Z,150
2016-05-10T09:37:25.328Z,150
2016-05-10T09:38:25.318Z,155
2016-05-10T09:39:25.336Z,155
2016-05-10T09:40:25.200Z,155
2016-05-10T09:41:25.218Z,155
2016-05-10T09:42:25.379Z,155
2016-05-10T09:43:25.383Z,155
2016-05-10T09:44:26.197Z,155
2016-05-10T09:45:25.232Z,155
2016-05-10T09:46:25.406Z,155
2016-05-10T09:47:25.410Z,150
2016-05-10T09:48:25.429Z,150
2016-05-10T09:49:25.290Z,150
2016-05-10T09:50:25.137Z,150
2016-05-10T09:51:25.467Z,150
2016-05-10T09:52:25.455Z,150
2016-05-10T09:53:25.473Z,155
2016-05-10T09:54:25.320Z,150
2016-05-10T09:55:25.494Z,145
2016-05-10T09:56:25.512Z,145
2016-05-10T09:57:25.203Z,145
2016-05-10T09:58:25.533Z,145
2016-05-10T09:59:25.459Z,140
2016-05-10T10:00:25.523Z,140
2016-05-10T10:01:25.542Z,145
2016-05-10T10:02:25.544Z,140
2016-05-10T10:03:25.547Z,145
2016-05-10T10:04:25.613Z,140
2016-05-10T10:05:25.583Z,145
2016-05-10T10:06:25.461Z,145
2016-05-10T10:07:25.433Z,140
2016-05-10T10:08:25.591Z,140
2016-05-10T10:09:25.611Z,140
2016-05-10T10:10:25.629Z,140
2016-05-10T10:11:25.647Z,140
2016-05-10T10:12:25.650Z,135
2016-05-10T10:13:25.480Z,135
2016-05-10T10:14:25.702Z,135
2016-05-10T10:15:25.657Z,135
2016-05-10T10:16:25.676Z,135
2016-05-10T10:17:25.523Z,135
2016-05-10T10:18:25.696Z,135
2016-05-10T10:19:25.699Z,135
2016-05-10T10:20:25.530Z,135
2016-05-10T10:21:25.705Z,140
2016-05-10T10:22:25.723Z,135
2016-05-10T10:23:25.726Z,135
2016-05-10T10:24:25.744Z,130
2016-05-10T10:25:25.607Z,135
2016-05-10T10:26:25.750Z,130
2016-05-10T10:27:25.753Z,125
2016-05-10T10:28:25.615Z,125
2016-05-10T10:29:25.867Z,125
2016-05-10T10:30:25.776Z,125
2016-05-10T10:31:25.794Z,130
2016-05-10T10:32:25.797Z,125
2016-05-10T10:33:25.816Z,120
2016-05-10T10:34:25.818Z,120
2016-05-10T10:35:25.836Z,120
2016-05-10T10:36:25.870Z,120
2016-05-10T10:37:25.904Z,125
2016-05-10T10:38:25.844Z,125
2016-05-10T10:39:25.863Z,120
2016-05-10T10:40:25.865Z,120
2016-05-10T10:41:25.869Z,120
2016-05-10T10:42:25.730Z,120
2016-05-10T10:43:25.593Z,120
2016-05-10T10:44:25.971Z,120
2016-05-10T10:45:25.910Z,120
2016-05-10T10:46:25.913Z,120
2016-05-10T10:47:25.932Z,120
2016-05-10T10:48:25.965Z,120
2016-05-10T10:49:25.967Z,115
2016-05-10T10:50:25.955Z,120
2016-05-10T10:51:25.974Z,115
2016-05-10T10:52:25.351Z,115
2016-05-10T10:53:25.823Z,115
2016-05-10T10:54:25.981Z,115
2016-05-10T10:55:26.000Z,115
2016-05-10T10:56:26.002Z,115
2016-05-10T10:57:26.020Z,115
2016-05-10T10:58:26.023Z,115
2016-05-10T10:59:26.464Z,115
2016-05-10T11:00:25.889Z,115
2016-05-10T11:01:26.047Z,120
2016-05-10T11:02:25.769Z,120
2016-05-10T11:03:25.912Z,120
2016-05-10T11:04:26.071Z,120
2016-05-10T11:05:25.933Z,120
2016-05-10T11:06:25.951Z,120
2016-05-10T11:07:26.110Z,120
2016-05-10T11:08:25.956Z,115
2016-05-10T11:09:25.974Z,115
2016-05-10T11:10:26.118Z,115
2016-05-10T11:11:26.121Z,115
2016-05-10T11:12:26.202Z,115
2016-05-10T11:13:26.001Z,115
2016-05-10T11:14:26.207Z,115
2016-05-10T11:15:26.007Z,115
2016-05-10T11:16:26.165Z,115
2016-05-10T11:17:26.168Z,115
2016-05-10T11:18:26.202Z,115
2016-05-10T11:19:25.768Z,115
2016-05-10T11:20:26.207Z,115
2016-05-10T11:21:26.226Z,115
2016-05-10T11:22:26.260Z,115
2016-05-10T11:23:26.247Z,115
2016-05-10T11:24:26.109Z,115
2016-05-10T11:25:25.940Z,115
2016-05-10T11:26:26.271Z,115
2016-05-10T11:27:26.117Z,115
2016-05-10T11:28:26.151Z,115
2016-05-10T11:29:26.138Z,115
2016-05-10T11:30:26.297Z,115
2016-05-10T11:31:26.300Z,115
2016-05-10T11:32:26.161Z,115
2016-05-10T11:33:26.164Z,115
2016-05-10T11:34:26.182Z,115
2016-05-10T11:35:26.325Z,115
2016-05-10T11:36:26.360Z,115
2016-05-10T11:37:26.191Z,115
2016-05-10T11:38:26.208Z,115
2016-05-10T11:39:26.368Z,115
2016-05-10T11:40:26.261Z,115
2016-05-10T11:41:26.233Z,115
2016-05-10T11:42:26.236Z,115
2016-05-10T11:43:26.269Z,110
2016-05-10T11:44:27.084Z,110
2016-05-10T11:45:27.338Z,110
2016-05-10T11:46:26.434Z,110
2016-05-10T11:47:26.140Z,110
2016-05-10T11:48:26.455Z,110
2016-05-10T11:49:26.348Z,135
2016-05-10T11:50:26.319Z,135
2016-05-10T11:51:26.479Z,135
2016-05-10T11:52:26.481Z,135
2016-05-10T11:53:26.484Z,135
2016-05-10T11:54:26.502Z,135
2016-05-10T11:55:26.504Z,130
2016-05-10T11:56:26.492Z,135
2016-05-10T11:57:26.354Z,130
2016-05-10T11:58:26.512Z,135
2016-05-10T11:59:26.593Z,125
2016-05-10T12:00:26.534Z,125
2016-05-10T12:01:26.380Z,120
2016-05-10T12:02:26.555Z,120
2016-05-10T12:03:26.541Z,120
2016-05-10T12:04:26.544Z,115
2016-05-10T12:05:26.391Z,110
2016-05-10T12:06:26.409Z,110
2016-05-10T12:07:26.428Z,105
2016-05-10T12:08:26.414Z,105
2016-05-10T12:09:26.402Z,105
2016-05-10T12:10:26.436Z,100
2016-05-10T12:11:26.611Z,100
2016-05-10T12:12:26.457Z,100
2016-05-10T12:13:26.616Z,100
2016-05-10T12:14:26.931Z,105
2016-05-10T12:15:26.636Z,100
2016-05-10T12:16:26.499Z,105
2016-05-10T12:17:26.330Z,105
2016-05-10T12:18:26.644Z,105
2016-05-10T12:19:26.679Z,105
2016-05-10T12:20:26.666Z,105
2016-05-10T12:21:26.684Z,105
2016-05-10T12:22:26.390Z,110
2016-05-10T12:23:26.549Z,110
2016-05-10T12:24:32.270Z,110
2016-05-10T12:25:26.555Z,110
2016-05-10T12:26:26.573Z,110
2016-05-10T12:27:26.575Z,115
2016-05-10T12:28:26.735Z,115
2016-05-10T12:29:32.940Z,115
2016-05-10T12:30:26.756Z,115
2016-05-10T12:31:26.759Z,115
2016-05-10T12:32:26.760Z,115
2016-05-10T12:33:26.779Z,115
2016-05-10T12:34:26.782Z,115
2016-05-10T12:35:26.784Z,115
2016-05-10T12:36:26.647Z,115
2016-05-10T12:37:26.634Z,110
2016-05-10T12:38:26.667Z,110
2016-05-10T12:39:26.826Z,110
2016-05-10T12:40:26.844Z,110
2016-05-10T12:41:26.660Z,105
2016-05-10T12:42:26.834Z,100
2016-05-10T12:43:26.837Z,100
2016-05-10T12:44:27.605Z,95
2016-05-10T12:45:27.436Z,90
2016-05-10T12:46:27.469Z,90
2016-05-10T12:47:26.723Z,85
2016-05-10T12:48:26.866Z,85
2016-05-10T12:49:26.885Z,80
2016-05-10T12:50:26.902Z,75
2016-05-10T12:51:26.905Z,70
2016-05-10T12:52:26.924Z,65
2016-05-10T12:53:26.771Z,65
2016-05-10T12:54:26.788Z,60
2016-05-10T12:55:26.931Z,60
2016-05-10T12:56:26.622Z,55
2016-05-10T12:57:26.937Z,55
2016-05-10T12:58:26.815Z,55
2016-05-10T12:59:26.895Z,50
2016-05-10T13:00:26.664Z,50
2016-05-10T13:01:26.667Z,55
2016-05-10T13:02:26.857Z,55
2016-05-10T13:03:26.845Z,60
2016-05-10T13:04:26.862Z,60
2016-05-10T13:05:26.850Z,65
2016-05-10T13:06:26.712Z,70
2016-05-10T13:07:26.870Z,75
2016-05-10T13:08:26.733Z,80
2016-05-10T13:09:26.719Z,85
2016-05-10T13:10:27.066Z,90
2016-05-10T13:11:27.053Z,90
2016-05-10T13:12:26.743Z,95
2016-05-10T13:13:27.058Z,95
2016-05-10T13:14:27.905Z,100
2016-05-10T13:15:27.079Z,100
2016-05-10T13:16:27.082Z,100
2016-05-10T13:17:26.944Z,105
2016-05-10T13:18:27.119Z,105
2016-05-10T13:19:27.137Z,105
2016-05-10T13:20:26.968Z,100
2016-05-10T13:21:26.971Z,95
2016-05-10T13:22:26.989Z,95
2016-05-10T13:23:26.991Z,90
2016-05-10T13:24:27.150Z,85
2016-05-10T13:25:27.154Z,75
2016-05-10T13:26:27.171Z,70
2016-05-10T13:27:27.018Z,70
2016-05-10T13:28:27.176Z,65
2016-05-10T13:29:27.070Z,60
2016-05-10T13:30:27.213Z,60
2016-05-10T13:31:26.904Z,55
2016-05-10T13:32:27.062Z,50
2016-05-10T13:33:27.237Z,45
2016-05-10T13:34:27.068Z,45
2016-05-10T13:35:27.226Z,40
2016-05-10T13:36:27.245Z,35
2016-05-10T13:37:27.264Z,35
2016-05-10T13:38:27.095Z,30
2016-05-10T13:39:27.097Z,30
2016-05-10T13:40:27.114Z,30
2016-05-10T13:41:27.289Z,25
2016-05-10T13:42:27.136Z,25
2016-05-10T13:44:05.329Z,25
2016-05-10T13:44:27.297Z,25
2016-05-10T13:45:26.848Z,25
2016-05-10T13:46:27.147Z,25
2016-05-10T13:47:27.322Z,25
2016-05-10T13:48:27.355Z,25
2016-05-10T13:49:27.327Z,25
2016-05-10T13:50:27.205Z,25
2016-05-10T13:51:27.349Z,30
2016-05-10T13:52:27.366Z,30
2016-05-10T13:53:27.385Z,30
2016-05-10T13:54:27.215Z,30
2016-05-10T13:55:27.077Z,30
2016-05-10T13:56:27.424Z,30
2016-05-10T13:57:27.396Z,30
2016-05-10T13:58:27.398Z,30
2016-05-10T13:59:28.073Z,30
2016-05-10T14:00:27.434Z,30
2016-05-10T14:01:27.422Z,30
2016-05-10T14:02:27.268Z,30
2016-05-10T14:03:27.443Z,30
2016-05-10T14:04:27.149Z,30
2016-05-10T14:05:27.448Z,35
2016-05-10T14:06:27.295Z,35
2016-05-10T14:07:27.454Z,35
2016-05-10T14:08:27.488Z,35
2016-05-10T14:09:27.334Z,35